Time;durP1;ratioP1;P1;durP2;ratioP2;P2;SDS_P1;SDS_P2;PMS_P1;PMS_P2;Temp;Humidity;BMP_temperature;BMP_pressure;BME280_temperature;BME280_humidity;BME280_pressure;Samples;Min_cycle;Max_cycle;Signal;HPM_P1;HPM_P2
2021/11/02 00:03:12;;;;;;;8.80;7.15;;;;;;;;;;10337686;28;20026;-72
2021/11/02 00:08:12;;;;;;;22.70;7.70;;;;;;;;;;10337489;28;20306;-72
2021/11/02 00:13:12;;;;;;;9.38;7.30;;;;;;;;;;10337754;28;20478;-72
2021/11/02 00:18:13;;;;;;;12.05;8.82;;;;;;;;;;10338013;28;20088;-72
2021/11/02 00:23:13;;;;;;;9.48;7.88;;;;;;;;;;10337243;28;20030;-73
2021/11/02 00:28:13;;;;;;;9.32;8.35;;;;;;;;;;10336534;28;20038;-73
2021/11/02 00:33:13;;;;;;;19.83;9.02;;;;;;;;;;10336897;28;20096;-73
2021/11/02 00:38:14;;;;;;;22.38;7.97;;;;;;;;;;10336946;28;20054;-73
2021/11/02 00:43:14;;;;;;;18.08;8.80;;;;;;;;;;10335883;28;20031;-73
2021/11/02 00:48:23;;;;;;;11.95;7.60;;;;;;;;;;10350724;28;20064;-72
2021/11/02 00:53:23;;;;;;;14.00;9.45;;;;;;;;;;10337188;28;20045;-73
2021/11/02 00:58:25;;;;;;;11.07;9.13;;;;;;;;;;10335962;28;20026;-73
2021/11/02 01:03:25;;;;;;;9.18;8.35;;;;;;;;;;10336328;28;20026;-73
2021/11/02 01:08:26;;;;;;;11.00;9.75;;;;;;;;;;10335456;28;20058;-73
2021/11/02 01:13:27;;;;;;;15.68;9.32;;;;;;;;;;10334175;28;20346;-73
2021/11/02 01:18:28;;;;;;;22.10;8.80;;;;;;;;;;10335183;28;20164;-72
2021/11/02 01:23:28;;;;;;;14.30;9.45;;;;;;;;;;10335706;28;20419;-73
2021/11/02 01:28:28;;;;;;;10.70;8.80;;;;;;;;;;10335256;28;20041;-73
2021/11/02 01:33:28;;;;;;;9.43;8.07;;;;;;;;;;10334632;28;20498;-73
2021/11/02 01:38:29;;;;;;;12.27;9.75;;;;;;;;;;10334341;28;20023;-73
2021/11/02 01:43:29;;;;;;;14.32;8.88;;;;;;;;;;10334430;28;20034;-74
2021/11/02 01:48:29;;;;;;;12.80;7.88;;;;;;;;;;10332276;28;20041;-73
2021/11/02 01:53:31;;;;;;;22.75;9.15;;;;;;;;;;10333572;28;20042;-74
2021/11/02 01:58:31;;;;;;;15.85;8.52;;;;;;;;;;10335075;28;20034;-72
2021/11/02 02:03:50;;;;;;;15.98;9.18;;;;;;;;;;10349488;28;20125;-72
2021/11/02 02:09:04;;;;;;;11.45;10.10;;;;;;;;;;10349686;28;20054;-73
2021/11/02 02:14:10;;;;;;;10.27;8.98;;;;;;;;;;10334732;28;20054;-73
2021/11/02 02:19:17;;;;;;;11.38;9.73;;;;;;;;;;10332824;28;20050;-72
2021/11/02 02:24:35;;;;;;;11.10;8.57;;;;;;;;;;10333346;28;20031;-72
2021/11/02 02:29:37;;;;;;;13.25;7.70;;;;;;;;;;10333261;28;20026;-73
2021/11/02 02:34:37;;;;;;;10.05;8.07;;;;;;;;;;10348463;28;20034;-72
2021/11/02 02:39:38;;;;;;;19.88;7.72;;;;;;;;;;10348887;28;20030;-73
2021/11/02 02:44:39;;;;;;;13.02;9.05;;;;;;;;;;10347827;28;20036;-73
2021/11/02 02:49:39;;;;;;;10.65;7.78;;;;;;;;;;10332886;28;20035;-73
2021/11/02 02:54:43;;;;;;;9.32;7.05;;;;;;;;;;10332731;28;20038;-73
2021/11/02 02:59:43;;;;;;;13.40;8.30;;;;;;;;;;10336943;28;20026;-74
2021/11/02 03:04:44;;;;;;;9.00;8.10;;;;;;;;;;10340820;28;20042;-72
2021/11/02 03:09:46;;;;;;;20.83;9.15;;;;;;;;;;10338583;28;20046;-73
2021/11/02 03:15:08;;;;;;;13.02;8.02;;;;;;;;;;10340081;28;20023;-74
2021/11/02 06:09:17;;;;;;;24.30;16.75;;;;;;;;;;10333502;28;20067;-74
2021/11/02 06:35:44;;;;;;;30.92;20.85;;;;;;;;;;10341448;28;20074;-74
2021/11/02 06:57:00;;;;;;;24.10;13.50;;;;;;;;;;10341360;28;20124;-74
2021/11/02 08:48:40;;;;;;;22.08;17.40;;;;;;;;;;10335974;28;20030;-74
2021/11/02 08:53:40;;;;;;;32.35;19.23;;;;;;;;;;10339282;28;20113;-73
2021/11/02 08:58:40;;;;;;;29.98;17.73;;;;;;;;;;10338680;28;20057;-75
2021/11/02 09:03:43;;;;;;;21.30;17.05;;;;;;;;;;10335453;28;20042;-73
2021/11/02 09:08:44;;;;;;;20.55;15.98;;;;;;;;;;10336538;28;20046;-73
2021/11/02 09:13:47;;;;;;;28.30;18.02;;;;;;;;;;10351273;28;20391;-74
2021/11/02 09:18:50;;;;;;;19.90;16.42;;;;;;;;;;10350244;28;20026;-74
2021/11/02 09:23:51;;;;;;;24.00;16.52;;;;;;;;;;10335101;28;20038;-73
2021/11/02 09:28:52;;;;;;;38.00;18.02;;;;;;;;;;10350074;28;20061;-72
2021/11/02 09:33:53;;;;;;;24.77;19.67;;;;;;;;;;10350012;28;20109;-72
2021/11/02 09:39:00;;;;;;;37.97;20.33;;;;;;;;;;10335228;28;20105;-72
2021/11/02 09:44:06;;;;;;;23.35;18.00;;;;;;;;;;10349265;28;20036;-71
2021/11/02 09:49:07;;;;;;;35.80;20.92;;;;;;;;;;10332624;28;20026;-73
2021/11/02 09:54:08;;;;;;;21.48;17.17;;;;;;;;;;10333854;28;20531;-73
2021/11/02 09:59:15;;;;;;;26.05;18.05;;;;;;;;;;10333226;28;20030;-72
2021/11/02 10:04:19;;;;;;;25.27;16.97;;;;;;;;;;10334614;28;20026;-73
2021/11/02 10:09:31;;;;;;;20.55;18.33;;;;;;;;;;10331560;28;20487;-73
2021/11/02 10:14:36;;;;;;;22.20;17.80;;;;;;;;;;10333559;28;20482;-73
2021/11/02 10:19:42;;;;;;;26.60;17.35;;;;;;;;;;10334433;28;20031;-73
2021/11/02 10:25:01;;;;;;;18.13;15.50;;;;;;;;;;10332769;28;20053;-73
2021/11/02 10:30:19;;;;;;;30.88;17.73;;;;;;;;;;10332488;28;20030;-72
2021/11/02 10:35:21;;;;;;;20.65;15.32;;;;;;;;;;10334048;28;20185;-72
2021/11/02 10:40:23;;;;;;;20.60;12.90;;;;;;;;;;10347214;28;20492;-72
2021/11/02 10:45:28;;;;;;;16.00;13.73;;;;;;;;;;10348185;28;20030;-72
2021/11/02 10:50:28;;;;;;;24.20;15.88;;;;;;;;;;10347339;28;20030;-73
2021/11/02 10:55:29;;;;;;;20.85;14.32;;;;;;;;;;10334883;28;20212;-73
2021/11/02 11:00:29;;;;;;;21.27;14.68;;;;;;;;;;10338024;28;20471;-72
2021/11/02 11:05:29;;;;;;;17.17;13.50;;;;;;;;;;10333427;28;20088;-71
2021/11/02 11:10:29;;;;;;;19.33;12.30;;;;;;;;;;10334840;28;20054;-72
2021/11/02 11:15:30;;;;;;;15.43;11.50;;;;;;;;;;10334512;28;20379;-71
2021/11/02 11:20:33;;;;;;;14.05;10.85;;;;;;;;;;10350993;28;20276;-71
2021/11/02 11:25:44;;;;;;;21.77;9.95;;;;;;;;;;10340371;28;20042;-71
2021/11/02 11:30:44;;;;;;;19.17;11.25;;;;;;;;;;10338838;28;20493;-72
2021/11/02 11:35:45;;;;;;;10.43;9.10;;;;;;;;;;10354527;28;20117;-72
2021/11/02 11:40:45;;;;;;;18.17;10.23;;;;;;;;;;10337680;28;20050;-72
2021/11/02 11:45:46;;;;;;;8.75;7.88;;;;;;;;;;10338208;28;20479;-71
2021/11/02 11:50:46;;;;;;;11.40;9.30;;;;;;;;;;10338770;28;20037;-71
2021/11/02 11:55:51;;;;;;;6.40;5.72;;;;;;;;;;10338210;28;20034;-71
2021/11/02 12:00:52;;;;;;;5.78;5.07;;;;;;;;;;10338263;28;20030;-71
2021/11/02 12:06:22;;;;;;;5.15;4.55;;;;;;;;;;10354024;28;20058;-73
2021/11/02 12:11:23;;;;;;;6.85;2.67;;;;;;;;;;10336176;28;20054;-74
2021/11/02 12:16:27;;;;;;;4.22;2.83;;;;;;;;;;10337847;28;20461;-73
2021/11/02 12:21:31;;;;;;;2.33;2.05;;;;;;;;;;10351981;28;20503;-72
2021/11/02 12:26:38;;;;;;;2.00;1.80;;;;;;;;;;10337646;28;20093;-71
2021/11/02 12:31:39;;;;;;;2.10;1.77;;;;;;;;;;10336316;28;20039;-72
2021/11/02 12:36:46;;;;;;;0.98;0.98;;;;;;;;;;10337675;28;20100;-72
2021/11/02 12:41:46;;;;;;;;;;;;;;;;;;10339248;28;20022;-72
2021/11/02 12:46:46;;;;;;;3.70;1.13;;;;;;;;;;10336949;28;20282;-73
2021/11/02 12:51:48;;;;;;;2.70;0.88;;;;;;;;;;10334186;28;20109;-72
2021/11/02 12:56:53;;;;;;;2.33;1.20;;;;;;;;;;10335056;28;20030;-72
2021/11/02 13:01:53;;;;;;;0.63;0.63;;;;;;;;;;10351064;28;20414;-72
2021/11/02 13:06:54;;;;;;;2.30;1.48;;;;;;;;;;10350158;28;20030;-71
2021/11/02 13:12:04;;;;;;;0.80;0.80;;;;;;;;;;10335705;28;20046;-72
2021/11/02 13:17:05;;;;;;;1.40;1.23;;;;;;;;;;10336402;28;20026;-71
2021/11/02 13:22:10;;;;;;;4.22;1.35;;;;;;;;;;10336262;28;20029;-71
2021/11/02 13:27:10;;;;;;;3.35;0.88;;;;;;;;;;10334901;28;20053;-70
2021/11/02 13:32:10;;;;;;;0.75;0.75;;;;;;;;;;10334258;28;20065;-71
2021/11/02 13:37:11;;;;;;;0.70;0.70;;;;;;;;;;10333418;28;20038;-71
2021/11/02 13:42:11;;;;;;;1.60;1.50;;;;;;;;;;10332293;28;20105;-72
2021/11/02 13:47:12;;;;;;;1.25;1.23;;;;;;;;;;10348973;28;20134;-70
2021/11/02 13:52:13;;;;;;;1.88;0.77;;;;;;;;;;10333772;28;20165;-71
2021/11/02 13:57:13;;;;;;;4.53;1.17;;;;;;;;;;10335124;28;20108;-70
2021/11/02 14:02:13;;;;;;;16.67;2.15;;;;;;;;;;10334108;28;20098;-71
2021/11/02 14:07:14;;;;;;;0.82;0.82;;;;;;;;;;10348703;28;20026;-72
2021/11/02 14:12:37;;;;;;;0.55;0.55;;;;;;;;;;10332162;28;20050;-72
2021/11/02 14:17:38;;;;;;;1.50;0.68;;;;;;;;;;10334435;28;20102;-71
2021/11/02 14:22:43;;;;;;;1.92;1.15;;;;;;;;;;10349498;28;20104;-71
2021/11/02 14:27:44;;;;;;;0.60;0.60;;;;;;;;;;10332215;28;20053;-72
2021/11/02 14:32:45;;;;;;;1.20;1.10;;;;;;;;;;10333113;28;20034;-71
2021/11/02 14:37:49;;;;;;;0.77;0.77;;;;;;;;;;10333119;28;20325;-72
2021/11/02 14:42:50;;;;;;;2.70;1.10;;;;;;;;;;10348859;28;20032;-70
2021/11/02 14:47:50;;;;;;;0.93;0.93;;;;;;;;;;10333451;28;20360;-71
2021/11/02 14:52:50;;;;;;;1.45;1.15;;;;;;;;;;10331655;28;20038;-71
2021/11/02 14:57:51;;;;;;;2.55;1.45;;;;;;;;;;10340450;28;20443;-71
2021/11/02 15:02:51;;;;;;;0.93;0.93;;;;;;;;;;10340721;28;20023;-71
2021/11/02 15:07:51;;;;;;;1.90;1.33;;;;;;;;;;10354774;28;20104;-71
2021/11/02 15:12:51;;;;;;;1.10;0.93;;;;;;;;;;10341921;28;20132;-73
2021/11/02 15:18:02;;;;;;;1.45;1.35;;;;;;;;;;10341192;28;20121;-70
2021/11/02 15:23:03;;;;;;;1.60;1.50;;;;;;;;;;10339234;28;20015;-72
2021/11/02 15:28:03;;;;;;;1.77;1.67;;;;;;;;;;10338359;28;20022;-72
2021/11/02 15:33:03;;;;;;;5.63;2.00;;;;;;;;;;10340733;28;20077;-71
2021/11/02 15:38:04;;;;;;;1.42;1.38;;;;;;;;;;10339249;28;20283;-71
2021/11/02 15:43:04;;;;;;;6.45;1.60;;;;;;;;;;10338632;28;20357;-71
2021/11/02 15:48:05;;;;;;;3.75;1.65;;;;;;;;;;10353366;28;20459;-71
2021/11/02 15:53:08;;;;;;;2.50;1.70;;;;;;;;;;10338105;28;20026;-71
2021/11/02 15:58:09;;;;;;;2.72;1.50;;;;;;;;;;10338238;28;20101;-72
2021/11/02 16:03:10;;;;;;;1.67;1.52;;;;;;;;;;10337612;28;20113;-71
2021/11/02 16:08:17;;;;;;;16.13;2.22;;;;;;;;;;10336399;28;20038;-71
2021/11/02 16:13:17;;;;;;;2.78;1.92;;;;;;;;;;10340392;28;20058;-70
2021/11/02 16:18:18;;;;;;;1.65;1.55;;;;;;;;;;10337884;28;20023;-71
2021/11/02 16:23:22;;;;;;;2.97;2.55;;;;;;;;;;10336461;28;20026;-71
2021/11/02 16:28:45;;;;;;;4.88;3.45;;;;;;;;;;10337623;28;20395;-70
2021/11/02 16:33:46;;;;;;;3.25;2.45;;;;;;;;;;10338118;28;20036;-71
2021/11/02 16:38:46;;;;;;;3.78;3.38;;;;;;;;;;10336453;28;20030;-70
2021/11/02 16:43:51;;;;;;;4.30;3.33;;;;;;;;;;10337181;28;20411;-72
2021/11/02 16:48:56;;;;;;;8.10;3.05;;;;;;;;;;10336403;28;20030;-72
2021/11/02 16:54:06;;;;;;;3.50;3.17;;;;;;;;;;10350694;28;20037;-71
2021/11/02 16:59:07;;;;;;;4.05;2.38;;;;;;;;;;10350605;28;20033;-71
2021/11/02 17:04:08;;;;;;;1.58;1.55;;;;;;;;;;10351500;28;20027;-71
2021/11/02 17:09:09;;;;;;;7.03;2.28;;;;;;;;;;10335253;28;20101;-71
2021/11/02 17:14:09;;;;;;;0.70;0.70;;;;;;;;;;10335424;28;20068;-73
2021/11/02 17:19:09;;;;;;;2.38;0.90;;;;;;;;;;10335275;28;20080;-70
2021/11/02 17:24:11;;;;;;;0.85;0.85;;;;;;;;;;10335333;28;20038;-70
2021/11/02 17:29:11;;;;;;;2.33;1.25;;;;;;;;;;10334299;28;20103;-71
2021/11/02 17:34:21;;;;;;;1.95;1.23;;;;;;;;;;10334102;28;20035;-72
2021/11/02 17:39:22;;;;;;;0.90;0.90;;;;;;;;;;10348684;28;20147;-71
2021/11/02 17:44:22;;;;;;;1.92;1.25;;;;;;;;;;10334910;28;20034;-71
2021/11/02 17:49:22;;;;;;;2.47;1.85;;;;;;;;;;10333582;28;20102;-71
2021/11/02 17:54:23;;;;;;;3.27;1.87;;;;;;;;;;10334452;28;20041;-71
2021/11/02 17:59:23;;;;;;;1.15;1.15;;;;;;;;;;10332774;28;20392;-72
2021/11/02 18:04:23;;;;;;;1.55;1.45;;;;;;;;;;10334505;28;20034;-71
2021/11/02 18:09:24;;;;;;;1.90;1.52;;;;;;;;;;10333770;28;20141;-72
2021/11/02 18:14:24;;;;;;;1.75;1.42;;;;;;;;;;10334014;28;20237;-73
2021/11/02 18:19:24;;;;;;;3.90;1.67;;;;;;;;;;10334213;28;20034;-70
2021/11/02 18:24:25;;;;;;;1.42;1.33;;;;;;;;;;10334908;28;20287;-71
2021/11/02 18:29:25;;;;;;;1.85;1.75;;;;;;;;;;10336641;28;20022;-71
2021/11/02 18:34:26;;;;;;;4.32;1.83;;;;;;;;;;10343630;28;20521;-71
2021/11/02 18:39:26;;;;;;;2.53;1.90;;;;;;;;;;10357789;28;20383;-72
2021/11/02 18:44:26;;;;;;;1.30;1.30;;;;;;;;;;10341107;28;20477;-71
2021/11/02 18:49:26;;;;;;;2.67;2.47;;;;;;;;;;10343350;28;20757;-72
2021/11/02 18:54:27;;;;;;;2.50;1.98;;;;;;;;;;10342489;28;20125;-71
2021/11/02 18:59:27;;;;;;;2.97;1.95;;;;;;;;;;10342038;28;20037;-72
2021/11/02 19:04:27;;;;;;;7.28;3.10;;;;;;;;;;10341665;28;20038;-71
2021/11/02 19:09:27;;;;;;;5.95;3.53;;;;;;;;;;10356113;28;20060;-71
2021/11/02 19:14:28;;;;;;;3.67;2.85;;;;;;;;;;10339382;28;20064;-72
2021/11/02 19:19:28;;;;;;;2.67;2.47;;;;;;;;;;10339831;28;20081;-70
2021/11/02 19:24:28;;;;;;;7.05;3.88;;;;;;;;;;10341298;28;20061;-71
2021/11/02 19:29:28;;;;;;;4.07;3.60;;;;;;;;;;10341045;28;20444;-71
2021/11/02 19:34:29;;;;;;;4.43;4.13;;;;;;;;;;10354504;28;20451;-71
2021/11/02 19:39:29;;;;;;;3.40;3.20;;;;;;;;;;10339872;28;20429;-72
2021/11/02 19:44:33;;;;;;;12.77;4.82;;;;;;;;;;10354800;28;20164;-74
2021/11/02 19:49:34;;;;;;;4.25;3.65;;;;;;;;;;10341422;28;20038;-73
2021/11/02 19:54:34;;;;;;;5.07;4.57;;;;;;;;;;10340901;28;20343;-73
2021/11/02 19:59:34;;;;;;;7.13;6.13;;;;;;;;;;10344233;28;20026;-72
2021/11/02 20:04:34;;;;;;;6.30;5.70;;;;;;;;;;10350394;28;20030;-74
2021/11/02 20:09:35;;;;;;;8.13;5.88;;;;;;;;;;10343101;28;20492;-73
2021/11/02 20:14:37;;;;;;;10.73;7.07;;;;;;;;;;10354992;28;20030;-74
2021/11/02 20:19:38;;;;;;;11.27;7.35;;;;;;;;;;10353344;28;20380;-73
2021/11/02 20:24:42;;;;;;;12.45;7.18;;;;;;;;;;10338471;28;20464;-73
2021/11/02 20:29:42;;;;;;;8.32;7.43;;;;;;;;;;10338112;28;20374;-71
2021/11/02 20:34:42;;;;;;;9.10;8.15;;;;;;;;;;10337210;28;20036;-73
2021/11/02 20:39:56;;;;;;;8.20;6.63;;;;;;;;;;10336929;28;20470;-74
2021/11/02 20:44:56;;;;;;;7.90;7.18;;;;;;;;;;10353022;28;20084;-71
2021/11/02 20:49:57;;;;;;;10.25;8.15;;;;;;;;;;10352395;28;20463;-72
2021/11/02 20:54:57;;;;;;;10.35;7.53;;;;;;;;;;10336291;28;20109;-71
2021/11/02 20:59:57;;;;;;;10.30;6.80;;;;;;;;;;10336827;28;20471;-71
2021/11/02 21:04:58;;;;;;;7.95;7.18;;;;;;;;;;10335123;28;20035;-72
2021/11/02 21:09:59;;;;;;;13.50;7.28;;;;;;;;;;10338124;28;20063;-72
2021/11/02 21:14:59;;;;;;;10.80;8.02;;;;;;;;;;10337752;28;20464;-71
2021/11/02 21:20:01;;;;;;;12.88;9.02;;;;;;;;;;10334737;28;20045;-71
2021/11/02 21:25:03;;;;;;;11.48;8.77;;;;;;;;;;10350753;28;20451;-71
2021/11/02 21:30:04;;;;;;;11.68;9.00;;;;;;;;;;10336560;28;20030;-71
2021/11/02 21:35:05;;;;;;;8.13;7.32;;;;;;;;;;10334925;28;20435;-72
2021/11/02 21:40:05;;;;;;;11.10;9.20;;;;;;;;;;10337128;28;20026;-70
2021/11/02 21:45:14;;;;;;;10.25;8.75;;;;;;;;;;10335638;28;20376;-71
2021/11/02 21:50:16;;;;;;;10.65;8.52;;;;;;;;;;10333903;28;20030;-70
2021/11/02 21:55:17;;;;;;;10.80;8.35;;;;;;;;;;10335336;28;20030;-69
2021/11/02 22:00:17;;;;;;;11.90;8.38;;;;;;;;;;10349515;28;20033;-70
2021/11/02 22:05:17;;;;;;;7.80;7.00;;;;;;;;;;10332329;28;20030;-70
2021/11/02 22:10:18;;;;;;;7.55;6.55;;;;;;;;;;10334699;28;20058;-71
2021/11/02 22:15:18;;;;;;;10.05;6.93;;;;;;;;;;10334281;28;20109;-71
2021/11/02 22:20:18;;;;;;;7.28;6.32;;;;;;;;;;10349960;28;20101;-71
2021/11/02 22:25:19;;;;;;;6.00;4.68;;;;;;;;;;10335175;28;20026;-71
2021/11/02 22:30:19;;;;;;;14.07;5.40;;;;;;;;;;10333576;28;20133;-72
2021/11/02 22:35:20;;;;;;;5.97;4.82;;;;;;;;;;10335424;28;20082;-71
2021/11/02 22:40:20;;;;;;;9.00;5.20;;;;;;;;;;10335130;28;20030;-70
2021/11/02 22:45:20;;;;;;;4.82;4.20;;;;;;;;;;10333928;28;20046;-70
2021/11/02 22:50:24;;;;;;;8.70;4.70;;;;;;;;;;10334068;28;20034;-71
2021/11/02 22:55:25;;;;;;;8.07;5.07;;;;;;;;;;10334125;28;20030;-72
2021/11/02 23:00:28;;;;;;;5.70;5.25;;;;;;;;;;10349114;28;20022;-71
2021/11/02 23:05:28;;;;;;;7.68;5.85;;;;;;;;;;10333422;28;20372;-71
2021/11/02 23:10:29;;;;;;;8.53;5.90;;;;;;;;;;10332696;28;20141;-70
2021/11/02 23:15:29;;;;;;;7.53;5.68;;;;;;;;;;10336131;28;20275;-71
2021/11/02 23:20:29;;;;;;;6.70;4.70;;;;;;;;;;10342096;28;20487;-71
2021/11/02 23:25:31;;;;;;;9.10;5.75;;;;;;;;;;10342786;28;20356;-71
2021/11/02 23:30:31;;;;;;;11.02;4.80;;;;;;;;;;10354783;28;20030;-71
2021/11/02 23:35:32;;;;;;;5.78;5.15;;;;;;;;;;10338633;28;20472;-70
2021/11/02 23:40:36;;;;;;;5.32;4.93;;;;;;;;;;10354812;28;20136;-72
2021/11/02 23:45:37;;;;;;;7.10;4.88;;;;;;;;;;10340102;28;20030;-70
2021/11/02 23:50:38;;;;;;;9.30;4.53;;;;;;;;;;10354305;28;20456;-71
2021/11/02 23:55:40;;;;;;;6.40;5.80;;;;;;;;;;10338442;28;20100;-71
